Time;durP1;ratioP1;P1;durP2;ratioP2;P2;SDS_P1;SDS_P2;PMS_P1;PMS_P2;Temp;Humidity;BMP_temperature;BMP_pressure;BME280_temperature;BME280_humidity;BME280_pressure;Samples;Min_cycle;Max_cycle;Signal;HPM_P1;HPM_P2
2022/11/10 05:01:26;;;;;;;1999.90;999.90;;;7.70;99.90;;;;;;5531201;23;19926;-79
2022/11/10 05:03:53;;;;;;;1999.90;999.90;;;7.70;99.90;;;;;;5016928;28;20411;-78
2022/11/10 05:06:19;;;;;;;1999.90;999.90;;;7.70;99.90;;;;;;5016412;28;20038;-78
2022/11/10 05:08:46;;;;;;;1999.90;999.90;;;7.60;99.90;;;;;;5016764;28;20534;-78
2022/11/10 05:11:12;;;;;;;1999.90;999.90;;;7.60;99.90;;;;;;5016535;28;20502;-78
2022/11/10 05:13:38;;;;;;;1999.90;999.90;;;7.60;99.90;;;;;;5016989;28;20117;-78
2022/11/10 05:16:05;;;;;;;1999.90;999.90;;;7.60;99.90;;;;;;5015716;28;20121;-79
2022/11/10 05:18:30;;;;;;;1999.90;999.90;;;7.60;99.90;;;;;;5015533;28;20519;-79
2022/11/10 05:20:56;;;;;;;1999.90;999.90;;;7.50;99.90;;;;;;5017344;28;20145;-78
2022/11/10 05:23:37;;;;;;;1999.90;999.90;;;7.50;99.90;;;;;;5017384;28;20117;-78
2022/11/10 05:26:11;;;;;;;1999.90;999.90;;;7.40;99.90;;;;;;5018546;28;20026;-79
2022/11/10 05:28:38;;;;;;;1999.90;999.90;;;7.40;99.90;;;;;;5018171;28;20496;-79
2022/11/10 05:31:04;;;;;;;1999.90;999.90;;;7.40;99.90;;;;;;5017469;28;20121;-79
2022/11/10 05:33:30;;;;;;;1999.90;999.90;;;7.30;99.90;;;;;;5018540;28;20030;-79
2022/11/10 05:35:56;;;;;;;1999.90;999.90;;;7.30;99.90;;;;;;5018146;28;20492;-79
2022/11/10 05:38:21;;;;;;;1999.90;999.90;;;7.30;99.90;;;;;;5018710;28;20041;-79
2022/11/10 05:40:47;;;;;;;1999.90;999.90;;;7.30;99.90;;;;;;5016679;28;20476;-79
2022/11/10 05:43:13;;;;;;;1999.90;999.90;;;7.30;99.90;;;;;;5017076;28;20428;-79
2022/11/10 05:45:38;;;;;;;1999.90;999.90;;;7.40;99.90;;;;;;5016527;28;20042;-79
2022/11/10 05:48:04;;;;;;;1999.90;999.90;;;7.30;99.90;;;;;;5017988;28;20039;-79
2022/11/10 05:50:30;;;;;;;1999.90;999.90;;;7.30;99.90;;;;;;5016294;28;20034;-79
2022/11/10 05:52:55;;;;;;;1999.90;999.90;;;7.30;99.90;;;;;;5018428;28;20041;-79
2022/11/10 05:55:24;;;;;;;1999.90;999.90;;;7.40;99.90;;;;;;5017460;28;20070;-79
2022/11/10 05:57:51;;;;;;;1999.90;999.90;;;7.30;99.90;;;;;;5017885;28;20516;-79
2022/11/10 06:00:20;;;;;;;1999.90;999.90;;;7.30;99.90;;;;;;5015332;28;20492;-79
2022/11/10 06:02:58;;;;;;;1999.90;999.90;;;7.20;99.90;;;;;;5017708;28;20058;-79
2022/11/10 06:05:24;;;;;;;1999.90;999.90;;;7.10;99.90;;;;;;5017597;28;20038;-79
2022/11/10 06:07:50;;;;;;;1999.90;999.90;;;7.10;99.90;;;;;;5017443;28;20030;-79
2022/11/10 06:10:15;;;;;;;1999.90;999.90;;;7.20;99.90;;;;;;5018066;28;20035;-79
2022/11/10 06:12:41;;;;;;;1999.90;999.90;;;7.20;99.90;;;;;;5015778;28;20043;-79
2022/11/10 06:15:08;;;;;;;1999.90;999.90;;;7.30;99.90;;;;;;5017462;28;20030;-79
2022/11/10 06:17:36;;;;;;;1999.90;999.90;;;7.30;99.90;;;;;;5017340;28;20038;-79
2022/11/10 06:20:02;;;;;;;1999.90;999.90;;;7.20;99.90;;;;;;5017230;28;20079;-79
2022/11/10 06:22:28;;;;;;;1999.90;999.90;;;7.20;99.90;;;;;;5017038;28;20037;-79
2022/11/10 06:24:53;;;;;;;1999.90;999.90;;;7.10;99.90;;;;;;5017184;28;20053;-79
2022/11/10 06:27:19;;;;;;;1999.90;999.90;;;7.20;99.90;;;;;;5015760;28;20113;-79
2022/11/10 06:29:44;;;;;;;1999.90;999.90;;;7.10;99.90;;;;;;5017491;28;20113;-79
2022/11/10 06:32:10;;;;;;;1999.90;999.90;;;7.20;99.90;;;;;;5017409;28;20034;-79
2022/11/10 06:34:36;;;;;;;1999.90;999.90;;;7.30;99.90;;;;;;5017036;28;20026;-79
2022/11/10 06:37:02;;;;;;;1999.90;999.90;;;7.30;99.90;;;;;;5015170;28;20502;-79
2022/11/10 06:39:27;;;;;;;1999.90;999.90;;;7.30;99.90;;;;;;5017148;28;20053;-80
2022/11/10 06:41:53;;;;;;;1999.90;999.90;;;7.40;99.90;;;;;;5016458;28;20034;-80
2022/11/10 06:44:18;;;;;;;1999.90;999.90;;;7.40;99.90;;;;;;5015380;28;20038;-80
2022/11/10 06:46:44;;;;;;;1999.90;999.90;;;7.40;99.90;;;;;;5016755;28;20509;-79
2022/11/10 06:49:09;;;;;;;1999.90;999.90;;;7.50;99.90;;;;;;5017512;28;20445;-79
2022/11/10 06:51:35;;;;;;;1999.90;999.90;;;7.60;99.90;;;;;;5016300;28;20656;-81
2022/11/10 06:54:01;;;;;;;1999.90;999.90;;;7.70;99.90;;;;;;5017726;28;20040;-80
2022/11/10 06:56:26;;;;;;;1999.90;999.90;;;7.70;99.90;;;;;;5017539;28;20084;-81
2022/11/10 06:58:54;;;;;;;1999.90;999.90;;;7.70;99.90;;;;;;5017881;28;20170;-80
2022/11/10 07:01:24;;;;;;;1999.90;999.90;;;7.70;99.90;;;;;;5015032;28;20038;-80
2022/11/10 07:03:51;;;;;;;1999.90;999.90;;;7.80;99.90;;;;;;5018101;28;20039;-80
2022/11/10 07:06:16;;;;;;;1999.90;999.90;;;7.80;99.90;;;;;;5015193;28;20439;-80
2022/11/10 07:08:42;;;;;;;1999.90;999.90;;;7.80;99.90;;;;;;5017504;28;20042;-80
2022/11/10 07:11:07;;;;;;;1999.90;999.90;;;7.90;99.90;;;;;;5016997;28;20085;-80
2022/11/10 07:13:33;;;;;;;1999.90;999.90;;;7.80;99.90;;;;;;5018295;28;20074;-82
2022/11/10 07:16:02;;;;;;;1999.90;999.90;;;7.80;99.90;;;;;;5017042;28;20037;-80
2022/11/10 07:18:28;;;;;;;1999.90;999.90;;;7.80;99.90;;;;;;5019566;28;20487;-80
2022/11/10 07:20:53;;;;;;;1999.90;999.90;;;7.80;99.90;;;;;;5015947;28;20034;-80
2022/11/10 07:23:19;;;;;;;1999.90;999.90;;;7.80;99.90;;;;;;5017599;28;20038;-80
2022/11/10 07:25:44;;;;;;;1999.90;999.90;;;7.80;99.90;;;;;;5016566;28;20022;-80
2022/11/10 07:28:11;;;;;;;1999.90;999.90;;;7.80;99.90;;;;;;5016682;28;20030;-81
2022/11/10 07:30:36;;;;;;;1999.90;999.90;;;7.80;99.90;;;;;;5016744;28;20432;-80
2022/11/10 07:33:13;;;;;;;1999.90;999.90;;;7.70;99.90;;;;;;5016491;28;20038;-81
2022/11/10 07:35:39;;;;;;;1999.90;999.90;;;7.70;99.90;;;;;;5016238;28;20034;-80
2022/11/10 07:38:08;;;;;;;1999.90;999.90;;;7.70;99.90;;;;;;5016343;28;20039;-80
2022/11/10 07:40:33;;;;;;;1999.90;999.90;;;7.70;99.90;;;;;;5016630;28;20975;-80
2022/11/10 07:42:59;;;;;;;1999.90;999.90;;;7.70;99.90;;;;;;5026746;28;20046;-80
2022/11/10 07:45:25;;;;;;;1999.90;999.90;;;7.70;99.90;;;;;;5031488;28;20046;-79
2022/11/10 07:47:56;;;;;;;1999.90;999.90;;;7.80;99.90;;;;;;5022376;28;20030;-79
2022/11/10 07:50:22;;;;;;;1999.90;999.90;;;7.70;99.90;;;;;;5018547;28;20073;-79
2022/11/10 07:52:47;;;;;;;1999.90;999.90;;;7.70;99.90;;;;;;5020137;28;20455;-79
2022/11/10 07:55:13;;;;;;;1999.90;999.90;;;7.80;99.90;;;;;;5020067;28;20030;-79
2022/11/10 07:57:38;;;;;;;1999.90;999.90;;;7.80;99.90;;;;;;5018350;28;20376;-80
2022/11/10 08:00:04;;;;;;;1999.90;999.90;;;7.90;99.90;;;;;;5018582;28;20468;-80
2022/11/10 08:02:30;;;;;;;1999.90;999.90;;;8.00;99.90;;;;;;5019673;28;20135;-79
2022/11/10 08:04:55;;;;;;;1999.90;999.90;;;8.00;99.90;;;;;;5019994;28;20034;-80
2022/11/10 08:07:21;;;;;;;1999.90;999.90;;;8.10;99.90;;;;;;5020202;28;20386;-79
2022/11/10 08:09:46;;;;;;;1999.90;999.90;;;8.20;99.90;;;;;;5020243;28;20038;-79
2022/11/10 08:12:12;;;;;;;1999.90;999.90;;;8.20;99.90;;;;;;5019842;28;20045;-79
2022/11/10 08:14:37;;;;;;;1999.90;999.90;;;8.40;99.90;;;;;;5019697;28;20117;-80
2022/11/10 08:17:03;;;;;;;1999.90;999.90;;;8.40;99.90;;;;;;5020077;28;20069;-80
2022/11/10 08:19:28;;;;;;;1999.90;999.90;;;8.50;99.90;;;;;;5020135;28;20042;-80
2022/11/10 08:21:54;;;;;;;1999.90;999.90;;;8.70;99.90;;;;;;5019748;28;20404;-80
2022/11/10 08:24:20;;;;;;;1999.90;999.90;;;8.80;99.90;;;;;;5020547;28;20038;-80
2022/11/10 08:26:45;;;;;;;1999.90;999.90;;;8.90;99.90;;;;;;5019604;28;20034;-80
2022/11/10 08:29:11;;;;;;;1999.90;999.90;;;8.90;99.90;;;;;;5020938;28;20043;-79
2022/11/10 08:31:37;;;;;;;1999.90;999.90;;;8.90;99.90;;;;;;5020987;28;20041;-81
2022/11/10 08:34:03;;;;;;;1999.90;999.90;;;9.00;99.90;;;;;;5019674;28;20038;-80
2022/11/10 08:36:28;;;;;;;1999.90;999.90;;;9.10;99.90;;;;;;5020115;28;20043;-80
2022/11/10 08:38:54;;;;;;;1999.90;999.90;;;9.20;99.90;;;;;;5020663;28;20128;-80
2022/11/10 08:41:19;;;;;;;1999.90;999.90;;;9.20;99.90;;;;;;5020342;28;20090;-80
2022/11/10 08:43:45;;;;;;;1999.90;999.90;;;9.20;99.90;;;;;;5019461;28;20042;-80
2022/11/10 08:46:10;;;;;;;1999.90;999.90;;;9.30;99.90;;;;;;5020375;28;20030;-79
2022/11/10 08:48:36;;;;;;;1999.90;999.90;;;9.50;99.90;;;;;;5020398;28;20030;-80
2022/11/10 08:51:01;;;;;;;1999.90;999.90;;;9.40;99.90;;;;;;5019706;28;20037;-80
2022/11/10 08:53:27;;;;;;;1999.90;999.90;;;9.40;99.90;;;;;;5020476;28;20113;-79
2022/11/10 08:55:56;;;;;;;1999.90;999.90;;;9.50;99.90;;;;;;5023751;28;20045;-79
2022/11/10 08:58:23;;;;;;;1999.90;999.90;;;9.60;99.90;;;;;;5020834;28;20125;-81
2022/11/10 09:00:49;;;;;;;1999.90;999.90;;;9.70;99.90;;;;;;5019710;28;20540;-82
2022/11/10 09:03:17;;;;;;;1999.90;999.90;;;9.90;99.90;;;;;;5020541;28;20496;-81
2022/11/10 09:05:43;;;;;;;1999.90;999.90;;;10.10;99.90;;;;;;5019767;28;20037;-81
2022/11/10 09:08:10;;;;;;;1999.90;999.90;;;10.20;99.90;;;;;;5020215;28;20034;-80
2022/11/10 09:10:41;;;;;;;1999.90;999.90;;;10.30;99.90;;;;;;5019851;28;20061;-81
2022/11/10 09:13:06;;;;;;;1999.90;999.90;;;10.40;99.90;;;;;;5020291;28;20101;-80
2022/11/10 09:15:33;;;;;;;1999.90;999.90;;;10.50;99.90;;;;;;5019711;28;20062;-78
2022/11/10 09:18:00;;;;;;;1999.90;999.90;;;10.70;99.90;;;;;;5020115;28;20078;-79
2022/11/10 09:20:31;;;;;;;1999.90;999.90;;;10.90;99.90;;;;;;5019410;28;20053;-78
2022/11/10 09:23:02;;;;;;;1999.90;999.90;;;11.10;99.90;;;;;;5018720;28;20102;-78
2022/11/10 09:25:28;;;;;;;1999.90;999.90;;;10.90;99.90;;;;;;5019201;28;20038;-80
2022/11/10 09:27:53;;;;;;;1999.90;999.90;;;11.30;99.90;;;;;;5019691;28;20042;-80
2022/11/10 09:30:19;;;;;;;1999.90;999.90;;;11.30;99.90;;;;;;5019269;28;20040;-78
2022/11/10 09:32:45;;;;;;;1999.90;999.90;;;11.60;99.90;;;;;;5020667;28;20073;-79
2022/11/10 09:35:12;;;;;;;1999.90;999.90;;;11.60;99.90;;;;;;5017704;28;20836;-80
2022/11/10 09:37:39;;;;;;;1999.90;999.90;;;11.80;99.90;;;;;;5019391;28;20038;-80
2022/11/10 09:40:05;;;;;;;1999.90;999.90;;;12.10;99.90;;;;;;5024614;28;20046;-79
2022/11/10 09:42:37;;;;;;;1999.90;999.90;;;12.40;99.90;;;;;;5021032;28;20030;-79
2022/11/10 09:45:18;;;;;;;1999.90;999.90;;;12.80;99.90;;;;;;5019835;28;20093;-78
2022/11/10 09:47:56;;;;;;;1999.90;999.90;;;12.90;99.90;;;;;;5019835;28;20118;-79
2022/11/10 09:51:08;;;;;;;1999.90;999.90;;;12.80;99.90;;;;;;5017752;28;20547;-78
2022/11/10 09:53:41;;;;;;;1999.90;999.90;;;12.90;99.90;;;;;;5016892;28;20508;-82
2022/11/10 09:56:15;;;;;;;1999.90;999.90;;;13.10;99.90;;;;;;5018944;28;20037;-80
2022/11/10 09:58:42;;;;;;;1999.90;999.90;;;12.80;99.90;;;;;;5018003;28;20077;-79
2022/11/10 10:01:31;;;;;;;1999.90;999.90;;;12.60;99.90;;;;;;5018872;28;20034;-79
2022/11/10 10:04:38;;;;;;;1999.90;999.90;;;12.60;99.90;;;;;;5026428;28;20823;-79
2022/11/10 10:07:22;;;;;;;1999.90;999.90;;;12.50;99.90;;;;;;5013728;28;20042;-77
2022/11/10 10:10:10;;;;;;;1999.90;999.90;;;12.70;99.90;;;;;;5016295;28;21006;-77
2022/11/10 10:13:08;;;;;;;1999.90;999.90;;;12.80;99.90;;;;;;5016524;28;20034;-77
2022/11/10 10:15:59;;;;;;;1999.90;999.90;;;12.80;99.90;;;;;;5017567;28;20064;-77
2022/11/10 10:18:33;;;;;;;1999.90;999.90;;;12.90;99.90;;;;;;5015736;28;20129;-77
2022/11/10 10:21:30;;;;;;;1999.90;999.90;;;13.00;99.90;;;;;;5016038;28;20035;-77
2022/11/10 10:23:58;;;;;;;1999.90;999.90;;;13.20;99.90;;;;;;5015623;28;20042;-77
2022/11/10 10:26:38;;;;;;;1999.90;999.90;;;13.00;99.90;;;;;;5015380;28;20034;-77
2022/11/10 10:29:32;;;;;;;1999.90;999.90;;;12.90;99.90;;;;;;5014250;28;20041;-77
2022/11/10 10:32:00;;;;;;;1999.90;999.90;;;12.90;99.90;;;;;;5013959;28;20511;-77
2022/11/10 10:34:30;;;;;;;1999.90;999.90;;;13.10;99.90;;;;;;5015862;28;20068;-77
2022/11/10 10:36:56;;;;;;;1999.90;999.90;;;13.00;99.90;;;;;;5015529;28;20497;-77
2022/11/10 10:39:35;;;;;;;1999.90;999.90;;;13.00;99.90;;;;;;5015382;28;20112;-77
2022/11/10 10:42:01;;;;;;;1999.90;999.90;;;13.00;99.90;;;;;;5015159;28;20488;-77
2022/11/10 10:44:26;;;;;;;1999.90;999.90;;;13.00;99.90;;;;;;5015314;28;20038;-77
2022/11/10 10:47:01;;;;;;;1999.90;999.90;;;13.00;99.90;;;;;;5014979;28;20388;-77
2022/11/10 10:49:29;;;;;;;1999.90;999.90;;;13.10;99.90;;;;;;5013826;28;20038;-77
2022/11/10 10:52:02;;;;;;;1999.90;999.90;;;13.20;99.90;;;;;;5015080;28;20026;-77
2022/11/10 10:54:29;;;;;;;1999.90;999.90;;;13.40;99.90;;;;;;5014907;28;20096;-77
2022/11/10 10:57:21;;;;;;;1999.90;999.90;;;13.50;99.90;;;;;;5014953;28;20062;-77
2022/11/10 10:59:47;;;;;;;1999.90;999.90;;;13.60;99.90;;;;;;5015102;28;20065;-78
2022/11/10 11:02:29;;;;;;;1999.90;999.90;;;13.60;99.90;;;;;;5014470;28;20034;-77
2022/11/10 11:05:17;;;;;;;1999.90;999.90;;;13.40;99.90;;;;;;5015004;28;20130;-77
2022/11/10 11:08:00;;;;;;;1999.90;999.90;;;13.20;99.90;;;;;;5014968;28;20121;-77
2022/11/10 11:10:30;;;;;;;1999.90;999.90;;;13.30;99.90;;;;;;5014888;28;20034;-77
2022/11/10 11:13:25;;;;;;;1999.90;999.90;;;13.20;99.90;;;;;;5015047;28;20035;-77
2022/11/10 11:16:06;;;;;;;1999.90;999.90;;;13.10;99.90;;;;;;5013863;28;20046;-77
2022/11/10 11:18:33;;;;;;;1999.90;999.90;;;13.20;99.90;;;;;;5014563;28;20539;-76
2022/11/10 11:21:20;;;;;;;1999.90;999.90;;;13.20;99.90;;;;;;5014393;28;20041;-78
2022/11/10 11:24:14;;;;;;;1999.90;999.90;;;13.30;99.90;;;;;;5013691;28;20042;-79
2022/11/10 11:27:03;;;;;;;1999.90;999.90;;;13.60;99.90;;;;;;5014286;28;20042;-77
2022/11/10 11:29:34;;;;;;;1999.90;999.90;;;13.70;99.90;;;;;;5013105;28;20030;-76
2022/11/10 11:32:06;;;;;;;1999.90;999.90;;;13.90;99.90;;;;;;5013911;28;20034;-78
2022/11/10 11:34:55;;;;;;;1999.90;999.90;;;14.00;99.90;;;;;;5014653;28;20415;-76
2022/11/10 11:37:27;;;;;;;1999.90;999.90;;;14.10;99.90;;;;;;5014937;28;20113;-76
2022/11/10 11:40:05;;;;;;;1999.90;999.90;;;14.10;99.90;;;;;;5014467;28;20130;-77
2022/11/10 11:42:45;;;;;;;1999.90;999.90;;;14.10;99.90;;;;;;5014521;28;20066;-76
2022/11/10 11:45:16;;;;;;;1999.90;999.90;;;13.70;99.90;;;;;;5012850;28;20034;-76
2022/11/10 11:47:44;;;;;;;1999.90;999.90;;;13.60;99.90;;;;;;5015960;28;20034;-80
2022/11/10 11:50:25;;;;;;;1999.90;999.90;;;13.40;99.90;;;;;;5014726;28;20522;-78
2022/11/10 11:53:09;;;;;;;1999.90;999.90;;;13.40;99.90;;;;;;5014493;28;20126;-78
2022/11/10 11:55:50;;;;;;;1999.90;999.90;;;13.40;99.90;;;;;;5014498;28;20042;-78
2022/11/10 11:58:28;;;;;;;1999.90;999.90;;;13.20;99.90;;;;;;5014462;28;20125;-77
2022/11/10 12:01:35;;;;;;;1999.90;999.90;;;13.30;99.90;;;;;;5013179;28;20412;-81
2022/11/10 12:04:21;;;;;;;1999.90;999.90;;;13.50;99.90;;;;;;5015343;28;20048;-79
2022/11/10 12:07:22;;;;;;;1999.90;999.90;;;13.80;99.90;;;;;;5014410;28;20030;-80
2022/11/10 12:09:52;;;;;;;1999.90;999.90;;;14.00;99.90;;;;;;5015435;28;20043;-76
2022/11/10 12:12:39;;;;;;;1999.90;999.90;;;14.20;99.90;;;;;;5014932;28;20039;-80
2022/11/10 12:15:41;;;;;;;1999.90;999.90;;;14.20;99.90;;;;;;5014463;28;20121;-79
2022/11/10 12:18:33;;;;;;;1999.90;999.90;;;14.40;99.90;;;;;;4998935;28;20046;-79
2022/11/10 12:21:07;;;;;;;1999.90;999.90;;;14.50;99.90;;;;;;4986194;28;20600;-79
2022/11/10 12:23:40;;;;;;;1999.90;999.90;;;14.70;99.90;;;;;;4994771;28;20035;-79
2022/11/10 12:26:30;;;;;;;1999.90;999.90;;;14.70;99.90;;;;;;5002032;28;20050;-78
2022/11/10 12:29:11;;;;;;;1999.90;999.90;;;14.80;99.90;;;;;;5014603;28;20527;-79
2022/11/10 12:31:40;;;;;;;1999.90;999.90;;;15.00;99.90;;;;;;5013014;28;20030;-79
2022/11/10 12:34:35;;;;;;;1999.90;999.90;;;15.20;99.90;;;;;;5014762;28;20037;-80
2022/11/10 12:37:05;;;;;;;1999.90;999.90;;;15.50;99.90;;;;;;4998120;28;20061;-79
2022/11/10 12:39:52;;;;;;;1999.90;999.90;;;15.40;99.90;;;;;;5018788;28;20049;-81
2022/11/10 12:42:21;;;;;;;1999.90;999.90;;;15.50;99.90;;;;;;5017553;28;20031;-78
2022/11/10 12:45:13;;;;;;;1999.90;999.90;;;15.60;99.90;;;;;;5015383;28;20439;-78
2022/11/10 12:47:45;;;;;;;1999.90;999.90;;;15.60;99.90;;;;;;5013769;28;20080;-79
2022/11/10 12:50:30;;;;;;;1999.90;999.90;;;15.40;99.90;;;;;;4997441;28;20045;-78
2022/11/10 12:53:11;;;;;;;1999.90;999.90;;;15.20;99.90;;;;;;4995883;28;20514;-78
2022/11/10 12:55:43;;;;;;;1999.90;999.90;;;14.90;99.90;;;;;;5016688;28;20069;-79
2022/11/10 12:58:13;;;;;;;1999.90;999.90;;;14.70;99.90;;;;;;5017399;28;20779;-78
2022/11/10 13:01:01;;;;;;;1999.90;999.90;;;14.50;99.90;;;;;;5016492;28;20534;-79
2022/11/10 13:03:33;;;;;;;1999.90;999.90;;;14.50;99.90;;;;;;5017668;28;20551;-80
2022/11/10 13:06:02;;;;;;;1999.90;999.90;;;14.50;99.90;;;;;;5005709;28;20125;-80
2022/11/10 13:08:39;;;;;;;1999.90;999.90;;;14.50;99.90;;;;;;4997161;28;20038;-83
2022/11/10 13:11:18;;;;;;;1999.90;999.90;;;14.50;99.90;;;;;;5002198;28;20034;-81
2022/11/10 13:14:18;;;;;;;1999.90;999.90;;;14.40;99.90;;;;;;5011854;28;20042;-81
2022/11/10 13:16:48;;;;;;;1999.90;999.90;;;14.40;99.90;;;;;;5016824;28;20034;-81
2022/11/10 13:19:19;;;;;;;1999.90;999.90;;;14.30;99.90;;;;;;5016554;28;20040;-81
2022/11/10 13:21:51;;;;;;;1999.90;999.90;;;14.20;99.90;;;;;;5018004;28;20451;-80
2022/11/10 13:24:21;;;;;;;1999.90;999.90;;;14.00;99.90;;;;;;5018426;28;20039;-80
2022/11/10 13:27:01;;;;;;;1999.90;999.90;;;13.90;99.90;;;;;;5018152;28;20054;-82
2022/11/10 13:29:28;;;;;;;1999.90;999.90;;;13.80;99.90;;;;;;5018736;28;20065;-81
2022/11/10 13:31:56;;;;;;;1999.90;999.90;;;13.80;99.90;;;;;;5017620;28;20527;-81
2022/11/10 13:34:31;;;;;;;1999.90;999.90;;;13.80;99.90;;;;;;5018057;28;20046;-81
2022/11/10 13:36:57;;;;;;;1999.90;999.90;;;13.90;99.90;;;;;;5018786;28;20035;-82
2022/11/10 13:39:27;;;;;;;1999.90;999.90;;;14.10;99.90;;;;;;5018691;28;20487;-81
2022/11/10 13:42:00;;;;;;;1999.90;999.90;;;14.10;99.90;;;;;;5020405;28;20050;-81
2022/11/10 13:44:34;;;;;;;1999.90;999.90;;;14.00;99.90;;;;;;5018965;28;20523;-81
2022/11/10 13:47:17;;;;;;;1999.90;999.90;;;14.00;99.90;;;;;;5015064;28;20523;-81
2022/11/10 13:49:54;;;;;;;1999.90;999.90;;;14.00;99.90;;;;;;5016150;28;20022;-81
2022/11/10 13:52:35;;;;;;;1999.90;999.90;;;14.00;99.90;;;;;;5015726;28;20030;-81
2022/11/10 13:55:22;;;;;;;1999.90;999.90;;;14.00;99.90;;;;;;5016302;28;20169;-81
2022/11/10 13:58:09;;;;;;;1999.90;999.90;;;13.80;99.90;;;;;;5015486;28;20042;-82
2022/11/10 14:00:35;;;;;;;1999.90;999.90;;;13.70;99.90;;;;;;5016065;28;20420;-81
2022/11/10 14:03:04;;;;;;;1999.90;999.90;;;13.60;99.90;;;;;;5017714;28;20117;-81
2022/11/10 14:05:31;;;;;;;1999.90;999.90;;;13.60;99.90;;;;;;5016068;28;20038;-80
2022/11/10 14:08:08;;;;;;;1999.90;999.90;;;13.60;99.90;;;;;;5016142;28;20038;-81
2022/11/10 14:10:59;;;;;;;1999.90;999.90;;;13.50;99.90;;;;;;5015800;28;20034;-81
2022/11/10 14:13:43;;;;;;;1999.90;999.90;;;13.50;99.90;;;;;;5014082;28;20030;-81
2022/11/10 14:16:22;;;;;;;1999.90;999.90;;;13.50;99.90;;;;;;5016674;28;20019;-81
2022/11/10 14:19:15;;;;;;;1999.90;999.90;;;13.50;99.90;;;;;;5017145;28;20030;-81
2022/11/10 14:21:51;;;;;;;1999.90;999.90;;;13.40;99.90;;;;;;5011287;28;20555;-80
2022/11/10 14:24:30;;;;;;;1999.90;999.90;;;13.40;99.90;;;;;;5024374;28;20097;-81
2022/11/10 14:27:11;;;;;;;1999.90;999.90;;;13.30;99.90;;;;;;5014527;28;20044;-81
2022/11/10 14:29:38;;;;;;;1999.90;999.90;;;13.30;99.90;;;;;;5016190;28;20078;-81
2022/11/10 14:32:17;;;;;;;1999.90;999.90;;;13.30;99.90;;;;;;5015697;28;20027;-81
2022/11/10 14:34:48;;;;;;;1999.90;999.90;;;13.30;99.90;;;;;;5013780;28;20057;-80
2022/11/10 14:37:25;;;;;;;1999.90;999.90;;;13.20;99.90;;;;;;5016171;28;20047;-79
2022/11/10 14:39:57;;;;;;;1999.90;999.90;;;13.20;99.90;;;;;;5014667;28;20768;-79
2022/11/10 14:42:29;;;;;;;1999.90;999.90;;;13.30;99.90;;;;;;5015986;28;20057;-79
2022/11/10 14:45:15;;;;;;;1999.90;999.90;;;13.20;99.90;;;;;;5017418;28;20040;-78
2022/11/10 14:47:41;;;;;;;1999.90;999.90;;;13.10;99.90;;;;;;5016302;28;20489;-82
2022/11/10 14:50:15;;;;;;;1999.90;999.90;;;13.10;99.90;;;;;;5017487;28;20045;-79
2022/11/10 14:52:42;;;;;;;1999.90;999.90;;;13.00;99.90;;;;;;5016267;28;20031;-79
2022/11/10 14:55:24;;;;;;;1999.90;999.90;;;13.00;99.90;;;;;;5016985;28;20117;-79
2022/11/10 14:58:32;;;;;;;1999.90;999.90;;;12.90;99.90;;;;;;5018076;28;20034;-79
2022/11/10 15:01:00;;;;;;;1999.90;999.90;;;12.80;99.90;;;;;;5011287;28;20141;-79
2022/11/10 15:03:37;;;;;;;1999.90;999.90;;;12.70;99.90;;;;;;5019380;28;20081;-79
2022/11/10 15:06:06;;;;;;;1999.90;999.90;;;12.50;99.90;;;;;;5023598;28;20038;-79
2022/11/10 15:08:32;;;;;;;1999.90;999.90;;;12.30;99.90;;;;;;5024711;28;20030;-79
2022/11/10 15:10:58;;;;;;;1999.90;999.90;;;12.20;99.90;;;;;;5023609;28;20113;-79
2022/11/10 15:13:26;;;;;;;1999.90;999.90;;;12.00;99.90;;;;;;5021062;28;20045;-79
2022/11/10 15:16:12;;;;;;;1999.90;999.90;;;11.90;99.90;;;;;;5020667;28;20034;-78
2022/11/10 15:18:38;;;;;;;1999.90;999.90;;;11.70;99.90;;;;;;5010874;28;20129;-79
2022/11/10 15:21:09;;;;;;;1999.90;999.90;;;11.60;99.90;;;;;;5017938;28;20070;-78
2022/11/10 15:23:51;;;;;;;1999.90;999.90;;;11.40;99.90;;;;;;5019649;28;20050;-79
2022/11/10 15:26:22;;;;;;;1999.90;999.90;;;11.30;99.90;;;;;;5018992;28;20035;-78
2022/11/10 15:28:49;;;;;;;1999.90;999.90;;;11.20;99.90;;;;;;5019835;28;20045;-78
2022/11/10 15:31:32;;;;;;;1999.90;999.90;;;11.00;99.90;;;;;;5019405;28;20037;-78
2022/11/10 15:34:03;;;;;;;1999.90;999.90;;;11.00;99.90;;;;;;5018816;28;20038;-79
2022/11/10 15:36:39;;;;;;;1999.90;999.90;;;10.90;99.90;;;;;;5020155;28;20034;-79
2022/11/10 15:39:15;;;;;;;1999.90;999.90;;;10.70;99.90;;;;;;5022112;28;20038;-78
2022/11/10 15:41:45;;;;;;;1999.90;999.90;;;10.60;99.90;;;;;;5024627;28;20031;-79
2022/11/10 15:44:15;;;;;;;1999.90;999.90;;;10.40;99.90;;;;;;5024645;28;20449;-79
2022/11/10 15:46:43;;;;;;;1999.90;999.90;;;10.30;99.90;;;;;;5022470;28;20023;-79
2022/11/10 15:49:26;;;;;;;1999.90;999.90;;;10.20;99.90;;;;;;5022829;28;20034;-79
2022/11/10 15:51:56;;;;;;;1999.90;999.90;;;10.10;99.90;;;;;;5023746;28;20036;-79
2022/11/10 15:54:25;;;;;;;1999.90;999.90;;;10.00;99.90;;;;;;5023411;28;20030;-78
2022/11/10 15:56:50;;;;;;;1999.90;999.90;;;9.90;99.90;;;;;;5022468;28;20348;-79
2022/11/10 15:59:16;;;;;;;1999.90;999.90;;;9.80;99.90;;;;;;5024030;28;20082;-79
2022/11/10 16:01:41;;;;;;;1999.90;999.90;;;9.60;99.90;;;;;;5024118;28;20039;-78
2022/11/10 16:04:09;;;;;;;1999.90;999.90;;;9.50;99.90;;;;;;5022342;28;20062;-78
2022/11/10 16:06:34;;;;;;;1999.90;999.90;;;9.40;99.90;;;;;;5022957;28;20452;-79
2022/11/10 16:09:00;;;;;;;1999.90;999.90;;;9.40;99.90;;;;;;5025419;28;20038;-79
2022/11/10 16:11:26;;;;;;;1999.90;999.90;;;9.40;99.90;;;;;;5027859;28;20492;-78
2022/11/10 16:13:53;;;;;;;1999.90;999.90;;;9.20;99.90;;;;;;5027555;28;20049;-79
2022/11/10 16:16:19;;;;;;;1999.90;999.90;;;9.10;99.90;;;;;;5026545;28;20026;-78
2022/11/10 16:18:45;;;;;;;1999.90;999.90;;;9.10;99.90;;;;;;5025145;28;20038;-78
2022/11/10 16:21:20;;;;;;;1999.90;999.90;;;9.20;99.90;;;;;;5024809;28;20030;-79
2022/11/10 16:23:46;;;;;;;1999.90;999.90;;;9.10;99.90;;;;;;5025767;28;20049;-78
2022/11/10 16:26:14;;;;;;;1999.90;999.90;;;9.00;99.90;;;;;;5026781;28;20033;-78
2022/11/10 16:28:43;;;;;;;1999.90;999.90;;;8.90;99.90;;;;;;5027464;28;20042;-78
2022/11/10 16:31:10;;;;;;;1999.90;999.90;;;8.80;99.90;;;;;;5026989;28;20033;-78
2022/11/10 16:33:36;;;;;;;1999.90;999.90;;;8.80;99.90;;;;;;5026330;28;20030;-78
2022/11/10 16:36:01;;;;;;;1999.90;999.90;;;8.80;99.90;;;;;;5021563;28;20404;-78
2022/11/10 16:38:28;;;;;;;1999.90;999.90;;;8.80;99.90;;;;;;5017431;28;20047;-80
2022/11/10 16:40:56;;;;;;;1999.90;999.90;;;8.80;99.90;;;;;;5018297;28;20470;-78
2022/11/10 16:43:22;;;;;;;1999.90;999.90;;;8.80;99.90;;;;;;5018855;28;20034;-78
2022/11/10 16:45:50;;;;;;;1999.90;999.90;;;8.70;99.90;;;;;;5017495;28;20222;-78
2022/11/10 16:48:21;;;;;;;1999.90;999.90;;;8.60;99.90;;;;;;5017583;28;20035;-78
2022/11/10 16:50:50;;;;;;;1999.90;999.90;;;8.50;99.90;;;;;;5019300;28;20038;-78
2022/11/10 16:53:18;;;;;;;1999.90;999.90;;;8.40;99.90;;;;;;5018745;28;20125;-78
2022/11/10 16:55:44;;;;;;;1999.90;999.90;;;8.40;99.90;;;;;;5019216;28;20031;-78
2022/11/10 16:58:10;;;;;;;1999.90;999.90;;;8.30;99.90;;;;;;5017340;28;20038;-78
2022/11/10 17:00:36;;;;;;;1999.90;999.90;;;8.30;99.90;;;;;;5018549;28;20038;-78
2022/11/10 17:03:15;;;;;;;1999.90;999.90;;;8.30;99.90;;;;;;5019631;28;20376;-78
2022/11/10 17:05:40;;;;;;;1999.90;999.90;;;8.30;99.90;;;;;;5019265;28;20174;-78
2022/11/10 17:08:09;;;;;;;1999.90;999.90;;;8.20;99.90;;;;;;5019275;28;20168;-78
2022/11/10 17:10:34;;;;;;;1999.90;999.90;;;8.10;99.90;;;;;;5018674;28;20054;-78
2022/11/10 17:13:00;;;;;;;1999.90;999.90;;;8.00;99.90;;;;;;5018200;28;20129;-78
2022/11/10 17:15:26;;;;;;;1999.90;999.90;;;8.00;99.90;;;;;;5020694;28;20948;-78
2022/11/10 17:17:53;;;;;;;1999.90;999.90;;;8.00;99.90;;;;;;5024616;28;20436;-78
2022/11/10 17:20:24;;;;;;;1999.90;999.90;;;8.00;99.90;;;;;;5023182;28;20116;-78
2022/11/10 17:22:51;;;;;;;1999.90;999.90;;;7.90;99.90;;;;;;5024437;28;20073;-78
2022/11/10 17:25:24;;;;;;;1999.90;999.90;;;7.80;99.90;;;;;;5024990;28;20568;-78
2022/11/10 17:27:50;;;;;;;1999.90;999.90;;;7.90;99.90;;;;;;5025001;28;20070;-78